sensor_id;sensor_type;location;lat;lon;timestamp;P1;durP1;ratioP1;P2;durP2;ratioP2
68858;SDS011;55864;49.238;8.092;2023-07-31T00:01:05;6.10;;;1.70;;
68858;SDS011;55864;49.238;8.092;2023-07-31T00:03:05;6.63;;;2.00;;
68858;SDS011;55864;49.238;8.092;2023-07-31T00:05:06;6.78;;;2.20;;
68858;SDS011;55864;49.238;8.092;2023-07-31T00:07:08;5.00;;;1.65;;
68858;SDS011;55864;49.238;8.092;2023-07-31T00:09:09;7.07;;;2.15;;
68858;SDS011;55864;49.238;8.092;2023-07-31T00:11:09;7.35;;;1.90;;
68858;SDS011;55864;49.238;8.092;2023-07-31T00:13:10;7.15;;;1.80;;
68858;SDS011;55864;49.238;8.092;2023-07-31T00:15:12;6.25;;;1.67;;
68858;SDS011;55864;49.238;8.092;2023-07-31T00:17:13;6.45;;;1.83;;
68858;SDS011;55864;49.238;8.092;2023-07-31T00:19:14;5.82;;;1.98;;
68858;SDS011;55864;49.238;8.092;2023-07-31T00:21:15;7.82;;;2.13;;
68858;SDS011;55864;49.238;8.092;2023-07-31T00:23:15;9.82;;;2.10;;
68858;SDS011;55864;49.238;8.092;2023-07-31T00:25:16;5.75;;;1.92;;
68858;SDS011;55864;49.238;8.092;2023-07-31T00:27:16;7.70;;;2.00;;
68858;SDS011;55864;49.238;8.092;2023-07-31T00:29:17;7.10;;;1.92;;
68858;SDS011;55864;49.238;8.092;2023-07-31T00:31:19;5.03;;;1.95;;
68858;SDS011;55864;49.238;8.092;2023-07-31T00:33:22;5.90;;;1.70;;
68858;SDS011;55864;49.238;8.092;2023-07-31T00:35:22;7.20;;;1.90;;
68858;SDS011;55864;49.238;8.092;2023-07-31T00:37:23;6.28;;;1.95;;
68858;SDS011;55864;49.238;8.092;2023-07-31T00:39:23;7.10;;;1.80;;
68858;SDS011;55864;49.238;8.092;2023-07-31T00:41:24;6.90;;;2.10;;
68858;SDS011;55864;49.238;8.092;2023-07-31T00:43:24;6.75;;;2.03;;
68858;SDS011;55864;49.238;8.092;2023-07-31T00:45:25;8.45;;;2.20;;
68858;SDS011;55864;49.238;8.092;2023-07-31T00:47:27;7.72;;;1.80;;
68858;SDS011;55864;49.238;8.092;2023-07-31T00:49:28;8.45;;;2.05;;
68858;SDS011;55864;49.238;8.092;2023-07-31T00:51:29;6.97;;;1.98;;
68858;SDS011;55864;49.238;8.092;2023-07-31T00:53:30;7.57;;;2.00;;
68858;SDS011;55864;49.238;8.092;2023-07-31T00:55:31;7.07;;;1.95;;
68858;SDS011;55864;49.238;8.092;2023-07-31T00:57:31;6.95;;;2.10;;
68858;SDS011;55864;49.238;8.092;2023-07-31T00:59:33;6.85;;;1.98;;
68858;SDS011;55864;49.238;8.092;2023-07-31T01:01:34;8.15;;;2.15;;
68858;SDS011;55864;49.238;8.092;2023-07-31T01:03:35;11.73;;;2.20;;
68858;SDS011;55864;49.238;8.092;2023-07-31T01:05:38;7.28;;;1.88;;
68858;SDS011;55864;49.238;8.092;2023-07-31T01:07:45;11.18;;;2.13;;
68858;SDS011;55864;49.238;8.092;2023-07-31T01:09:52;8.02;;;2.30;;
68858;SDS011;55864;49.238;8.092;2023-07-31T01:12:03;8.15;;;1.95;;
68858;SDS011;55864;49.238;8.092;2023-07-31T01:14:07;6.15;;;2.30;;
68858;SDS011;55864;49.238;8.092;2023-07-31T01:16:07;6.68;;;1.92;;
68858;SDS011;55864;49.238;8.092;2023-07-31T01:18:08;12.27;;;2.30;;
68858;SDS011;55864;49.238;8.092;2023-07-31T01:20:10;6.38;;;2.03;;
68858;SDS011;55864;49.238;8.092;2023-07-31T01:22:23;6.35;;;1.83;;
68858;SDS011;55864;49.238;8.092;2023-07-31T01:24:35;8.73;;;2.10;;
68858;SDS011;55864;49.238;8.092;2023-07-31T01:26:53;7.35;;;2.22;;
68858;SDS011;55864;49.238;8.092;2023-07-31T01:28:59;6.55;;;1.98;;
68858;SDS011;55864;49.238;8.092;2023-07-31T01:31:03;6.68;;;1.80;;
68858;SDS011;55864;49.238;8.092;2023-07-31T01:33:07;7.38;;;1.95;;
68858;SDS011;55864;49.238;8.092;2023-07-31T01:35:09;8.82;;;2.15;;
68858;SDS011;55864;49.238;8.092;2023-07-31T01:37:10;7.65;;;2.10;;
68858;SDS011;55864;49.238;8.092;2023-07-31T01:39:11;6.68;;;1.77;;
68858;SDS011;55864;49.238;8.092;2023-07-31T01:41:11;8.15;;;1.83;;
68858;SDS011;55864;49.238;8.092;2023-07-31T01:43:13;9.55;;;2.30;;
68858;SDS011;55864;49.238;8.092;2023-07-31T01:45:14;7.30;;;1.85;;
68858;SDS011;55864;49.238;8.092;2023-07-31T01:47:15;8.27;;;2.25;;
68858;SDS011;55864;49.238;8.092;2023-07-31T01:49:15;5.85;;;1.80;;
68858;SDS011;55864;49.238;8.092;2023-07-31T01:51:16;7.60;;;1.92;;
68858;SDS011;55864;49.238;8.092;2023-07-31T01:53:17;8.60;;;2.00;;
68858;SDS011;55864;49.238;8.092;2023-07-31T01:55:17;8.38;;;1.83;;
68858;SDS011;55864;49.238;8.092;2023-07-31T01:57:18;7.88;;;2.40;;
68858;SDS011;55864;49.238;8.092;2023-07-31T01:59:20;7.50;;;2.22;;
68858;SDS011;55864;49.238;8.092;2023-07-31T02:01:20;7.57;;;2.35;;
68858;SDS011;55864;49.238;8.092;2023-07-31T02:03:21;6.82;;;2.05;;
68858;SDS011;55864;49.238;8.092;2023-07-31T02:05:22;6.75;;;2.30;;
68858;SDS011;55864;49.238;8.092;2023-07-31T02:07:22;8.45;;;2.28;;
68858;SDS011;55864;49.238;8.092;2023-07-31T02:09:23;7.50;;;2.30;;
68858;SDS011;55864;49.238;8.092;2023-07-31T02:11:23;9.38;;;2.30;;
68858;SDS011;55864;49.238;8.092;2023-07-31T02:13:24;8.48;;;2.10;;
68858;SDS011;55864;49.238;8.092;2023-07-31T02:15:27;7.53;;;2.15;;
68858;SDS011;55864;49.238;8.092;2023-07-31T02:17:27;7.43;;;2.08;;
68858;SDS011;55864;49.238;8.092;2023-07-31T02:19:28;8.18;;;2.20;;
68858;SDS011;55864;49.238;8.092;2023-07-31T02:21:28;5.78;;;1.80;;
68858;SDS011;55864;49.238;8.092;2023-07-31T02:23:29;9.70;;;2.10;;
68858;SDS011;55864;49.238;8.092;2023-07-31T02:25:30;7.63;;;2.22;;
68858;SDS011;55864;49.238;8.092;2023-07-31T02:27:30;7.80;;;2.10;;
68858;SDS011;55864;49.238;8.092;2023-07-31T02:29:31;5.85;;;2.03;;
68858;SDS011;55864;49.238;8.092;2023-07-31T02:31:33;9.02;;;2.10;;
68858;SDS011;55864;49.238;8.092;2023-07-31T02:33:33;8.73;;;2.20;;
68858;SDS011;55864;49.238;8.092;2023-07-31T02:35:34;8.38;;;1.92;;
68858;SDS011;55864;49.238;8.092;2023-07-31T02:37:34;8.05;;;2.05;;
68858;SDS011;55864;49.238;8.092;2023-07-31T02:39:35;6.03;;;2.22;;
68858;SDS011;55864;49.238;8.092;2023-07-31T02:41:35;8.43;;;2.17;;
68858;SDS011;55864;49.238;8.092;2023-07-31T02:43:36;7.47;;;2.28;;
68858;SDS011;55864;49.238;8.092;2023-07-31T02:45:36;12.52;;;2.30;;
68858;SDS011;55864;49.238;8.092;2023-07-31T02:47:38;8.98;;;2.30;;
68858;SDS011;55864;49.238;8.092;2023-07-31T02:49:39;6.78;;;2.10;;
68858;SDS011;55864;49.238;8.092;2023-07-31T02:51:39;7.32;;;2.35;;
68858;SDS011;55864;49.238;8.092;2023-07-31T02:53:40;10.57;;;2.33;;
68858;SDS011;55864;49.238;8.092;2023-07-31T02:55:40;6.38;;;2.05;;
68858;SDS011;55864;49.238;8.092;2023-07-31T02:57:41;5.88;;;2.28;;
68858;SDS011;55864;49.238;8.092;2023-07-31T02:59:42;7.65;;;2.30;;
68858;SDS011;55864;49.238;8.092;2023-07-31T03:01:42;8.55;;;2.05;;
68858;SDS011;55864;49.238;8.092;2023-07-31T03:03:44;8.75;;;2.03;;
68858;SDS011;55864;49.238;8.092;2023-07-31T03:05:46;6.97;;;1.98;;
68858;SDS011;55864;49.238;8.092;2023-07-31T03:07:46;8.82;;;2.22;;
68858;SDS011;55864;49.238;8.092;2023-07-31T03:09:47;6.65;;;2.15;;
68858;SDS011;55864;49.238;8.092;2023-07-31T03:11:47;11.23;;;2.50;;
68858;SDS011;55864;49.238;8.092;2023-07-31T03:13:48;8.32;;;2.20;;
68858;SDS011;55864;49.238;8.092;2023-07-31T03:15:48;10.90;;;2.10;;
68858;SDS011;55864;49.238;8.092;2023-07-31T03:17:49;6.88;;;1.83;;
68858;SDS011;55864;49.238;8.092;2023-07-31T03:19:51;8.60;;;2.20;;
68858;SDS011;55864;49.238;8.092;2023-07-31T03:21:51;7.00;;;2.10;;
68858;SDS011;55864;49.238;8.092;2023-07-31T03:23:52;8.10;;;2.35;;
68858;SDS011;55864;49.238;8.092;2023-07-31T03:25:56;7.50;;;2.30;;
68858;SDS011;55864;49.238;8.092;2023-07-31T03:27:57;9.27;;;2.10;;
68858;SDS011;55864;49.238;8.092;2023-07-31T03:29:57;7.55;;;2.33;;
68858;SDS011;55864;49.238;8.092;2023-07-31T03:31:58;9.30;;;2.22;;
68858;SDS011;55864;49.238;8.092;2023-07-31T03:33:58;6.40;;;2.03;;
68858;SDS011;55864;49.238;8.092;2023-07-31T03:36:00;7.78;;;2.35;;
68858;SDS011;55864;49.238;8.092;2023-07-31T03:38:01;9.18;;;2.35;;
68858;SDS011;55864;49.238;8.092;2023-07-31T03:40:02;6.90;;;2.08;;
68858;SDS011;55864;49.238;8.092;2023-07-31T03:42:05;6.47;;;2.47;;
68858;SDS011;55864;49.238;8.092;2023-07-31T03:44:06;7.15;;;2.17;;
68858;SDS011;55864;49.238;8.092;2023-07-31T03:46:07;7.65;;;2.45;;
68858;SDS011;55864;49.238;8.092;2023-07-31T03:48:07;8.90;;;2.25;;
68858;SDS011;55864;49.238;8.092;2023-07-31T03:50:08;10.38;;;2.45;;
68858;SDS011;55864;49.238;8.092;2023-07-31T03:52:10;6.93;;;2.00;;
68858;SDS011;55864;49.238;8.092;2023-07-31T03:54:11;7.38;;;2.25;;
68858;SDS011;55864;49.238;8.092;2023-07-31T03:56:11;7.57;;;2.55;;
68858;SDS011;55864;49.238;8.092;2023-07-31T03:58:12;8.35;;;2.38;;
68858;SDS011;55864;49.238;8.092;2023-07-31T04:00:13;11.35;;;2.50;;
68858;SDS011;55864;49.238;8.092;2023-07-31T04:02:15;6.77;;;1.97;;
68858;SDS011;55864;49.238;8.092;2023-07-31T04:04:15;7.13;;;2.15;;
68858;SDS011;55864;49.238;8.092;2023-07-31T04:06:16;8.30;;;2.47;;
68858;SDS011;55864;49.238;8.092;2023-07-31T04:08:18;8.98;;;2.13;;
68858;SDS011;55864;49.238;8.092;2023-07-31T04:10:18;10.07;;;2.20;;
68858;SDS011;55864;49.238;8.092;2023-07-31T04:12:19;9.32;;;2.35;;
68858;SDS011;55864;49.238;8.092;2023-07-31T04:14:20;7.05;;;2.10;;
68858;SDS011;55864;49.238;8.092;2023-07-31T04:16:21;9.25;;;2.40;;
68858;SDS011;55864;49.238;8.092;2023-07-31T04:18:21;11.98;;;2.47;;
68858;SDS011;55864;49.238;8.092;2023-07-31T04:20:25;9.20;;;2.20;;
68858;SDS011;55864;49.238;8.092;2023-07-31T04:22:25;7.82;;;2.35;;
68858;SDS011;55864;49.238;8.092;2023-07-31T04:24:27;9.68;;;2.47;;
68858;SDS011;55864;49.238;8.092;2023-07-31T04:26:27;7.63;;;2.17;;
68858;SDS011;55864;49.238;8.092;2023-07-31T04:28:28;6.50;;;2.30;;
68858;SDS011;55864;49.238;8.092;2023-07-31T04:30:28;6.20;;;2.05;;
68858;SDS011;55864;49.238;8.092;2023-07-31T04:32:29;10.07;;;2.72;;
68858;SDS011;55864;49.238;8.092;2023-07-31T04:34:30;9.20;;;2.35;;
68858;SDS011;55864;49.238;8.092;2023-07-31T04:36:30;7.97;;;2.08;;
68858;SDS011;55864;49.238;8.092;2023-07-31T04:38:31;9.30;;;2.33;;
68858;SDS011;55864;49.238;8.092;2023-07-31T04:40:32;8.18;;;2.58;;
68858;SDS011;55864;49.238;8.092;2023-07-31T04:42:33;10.27;;;2.38;;
68858;SDS011;55864;49.238;8.092;2023-07-31T04:44:34;7.68;;;2.25;;
68858;SDS011;55864;49.238;8.092;2023-07-31T04:46:35;8.85;;;2.28;;
68858;SDS011;55864;49.238;8.092;2023-07-31T04:48:35;7.88;;;2.20;;
68858;SDS011;55864;49.238;8.092;2023-07-31T04:50:36;7.15;;;1.83;;
68858;SDS011;55864;49.238;8.092;2023-07-31T04:52:36;8.60;;;2.50;;
68858;SDS011;55864;49.238;8.092;2023-07-31T04:54:37;6.72;;;2.47;;
68858;SDS011;55864;49.238;8.092;2023-07-31T04:56:39;8.63;;;2.13;;
68858;SDS011;55864;49.238;8.092;2023-07-31T04:58:39;5.35;;;1.88;;
68858;SDS011;55864;49.238;8.092;2023-07-31T05:00:40;10.48;;;2.55;;
68858;SDS011;55864;49.238;8.092;2023-07-31T05:02:40;8.27;;;2.42;;
68858;SDS011;55864;49.238;8.092;2023-07-31T05:04:41;8.80;;;2.40;;
68858;SDS011;55864;49.238;8.092;2023-07-31T05:06:41;8.20;;;2.38;;
68858;SDS011;55864;49.238;8.092;2023-07-31T05:08:42;8.93;;;2.35;;
68858;SDS011;55864;49.238;8.092;2023-07-31T05:10:43;7.72;;;2.10;;
68858;SDS011;55864;49.238;8.092;2023-07-31T05:12:45;6.55;;;2.10;;
68858;SDS011;55864;49.238;8.092;2023-07-31T05:14:45;5.65;;;1.98;;
68858;SDS011;55864;49.238;8.092;2023-07-31T05:16:46;6.68;;;2.20;;
68858;SDS011;55864;49.238;8.092;2023-07-31T05:18:47;10.52;;;2.80;;
68858;SDS011;55864;49.238;8.092;2023-07-31T05:20:47;5.85;;;2.28;;
68858;SDS011;55864;49.238;8.092;2023-07-31T05:22:48;6.63;;;2.28;;
68858;SDS011;55864;49.238;8.092;2023-07-31T05:24:48;8.65;;;2.20;;
68858;SDS011;55864;49.238;8.092;2023-07-31T05:26:49;6.30;;;2.25;;
68858;SDS011;55864;49.238;8.092;2023-07-31T05:28:51;9.18;;;2.72;;
68858;SDS011;55864;49.238;8.092;2023-07-31T05:30:51;8.45;;;2.33;;
68858;SDS011;55864;49.238;8.092;2023-07-31T05:32:58;7.25;;;2.10;;
68858;SDS011;55864;49.238;8.092;2023-07-31T05:34:58;6.63;;;2.20;;
68858;SDS011;55864;49.238;8.092;2023-07-31T05:36:59;9.23;;;2.30;;
68858;SDS011;55864;49.238;8.092;2023-07-31T05:39:00;9.50;;;2.53;;
68858;SDS011;55864;49.238;8.092;2023-07-31T05:41:00;6.63;;;2.30;;
68858;SDS011;55864;49.238;8.092;2023-07-31T05:43:01;7.60;;;2.50;;
68858;SDS011;55864;49.238;8.092;2023-07-31T05:45:03;9.65;;;2.33;;
68858;SDS011;55864;49.238;8.092;2023-07-31T05:47:05;8.57;;;2.20;;
68858;SDS011;55864;49.238;8.092;2023-07-31T05:49:06;7.82;;;2.30;;
68858;SDS011;55864;49.238;8.092;2023-07-31T05:51:07;8.70;;;2.28;;
68858;SDS011;55864;49.238;8.092;2023-07-31T05:53:07;6.47;;;2.08;;
68858;SDS011;55864;49.238;8.092;2023-07-31T05:55:08;7.30;;;2.65;;
68858;SDS011;55864;49.238;8.092;2023-07-31T05:57:09;8.95;;;2.50;;
68858;SDS011;55864;49.238;8.092;2023-07-31T05:59:09;7.80;;;2.50;;
68858;SDS011;55864;49.238;8.092;2023-07-31T06:01:11;10.75;;;2.70;;
68858;SDS011;55864;49.238;8.092;2023-07-31T06:03:12;10.25;;;2.80;;
68858;SDS011;55864;49.238;8.092;2023-07-31T06:05:12;7.53;;;2.50;;
68858;SDS011;55864;49.238;8.092;2023-07-31T06:07:13;9.13;;;2.60;;
68858;SDS011;55864;49.238;8.092;2023-07-31T06:09:13;8.73;;;2.55;;
68858;SDS011;55864;49.238;8.092;2023-07-31T06:11:14;9.68;;;2.30;;
68858;SDS011;55864;49.238;8.092;2023-07-31T06:13:14;9.95;;;2.35;;
68858;SDS011;55864;49.238;8.092;2023-07-31T06:15:15;8.63;;;2.40;;
68858;SDS011;55864;49.238;8.092;2023-07-31T06:17:17;9.38;;;2.72;;
68858;SDS011;55864;49.238;8.092;2023-07-31T06:19:17;8.18;;;2.20;;
68858;SDS011;55864;49.238;8.092;2023-07-31T06:21:18;7.88;;;2.60;;
68858;SDS011;55864;49.238;8.092;2023-07-31T06:23:19;9.65;;;2.20;;
68858;SDS011;55864;49.238;8.092;2023-07-31T06:25:19;7.05;;;2.25;;
68858;SDS011;55864;49.238;8.092;2023-07-31T06:27:20;8.63;;;2.33;;
68858;SDS011;55864;49.238;8.092;2023-07-31T06:29:20;9.45;;;2.50;;
68858;SDS011;55864;49.238;8.092;2023-07-31T06:31:21;9.40;;;2.63;;
68858;SDS011;55864;49.238;8.092;2023-07-31T06:33:23;8.25;;;2.47;;
68858;SDS011;55864;49.238;8.092;2023-07-31T06:35:24;8.05;;;2.97;;
68858;SDS011;55864;49.238;8.092;2023-07-31T06:37:24;9.27;;;2.50;;
68858;SDS011;55864;49.238;8.092;2023-07-31T06:39:25;8.55;;;2.58;;
68858;SDS011;55864;49.238;8.092;2023-07-31T06:41:25;10.25;;;2.67;;
68858;SDS011;55864;49.238;8.092;2023-07-31T06:43:27;8.10;;;2.22;;
68858;SDS011;55864;49.238;8.092;2023-07-31T06:45:28;8.60;;;2.70;;
68858;SDS011;55864;49.238;8.092;2023-07-31T06:47:28;7.90;;;2.53;;
68858;SDS011;55864;49.238;8.092;2023-07-31T06:49:31;9.65;;;2.50;;
68858;SDS011;55864;49.238;8.092;2023-07-31T06:51:32;10.93;;;2.70;;
68858;SDS011;55864;49.238;8.092;2023-07-31T06:53:32;10.10;;;2.67;;
68858;SDS011;55864;49.238;8.092;2023-07-31T06:55:33;7.78;;;2.47;;
68858;SDS011;55864;49.238;8.092;2023-07-31T06:57:33;8.98;;;2.60;;
68858;SDS011;55864;49.238;8.092;2023-07-31T06:59:34;8.35;;;2.50;;
68858;SDS011;55864;49.238;8.092;2023-07-31T07:01:34;11.98;;;2.20;;
68858;SDS011;55864;49.238;8.092;2023-07-31T07:03:35;9.25;;;2.47;;
68858;SDS011;55864;49.238;8.092;2023-07-31T07:05:37;7.63;;;2.58;;
68858;SDS011;55864;49.238;8.092;2023-07-31T07:07:37;8.27;;;2.47;;
68858;SDS011;55864;49.238;8.092;2023-07-31T07:09:38;10.63;;;2.80;;
68858;SDS011;55864;49.238;8.092;2023-07-31T07:11:39;6.75;;;2.30;;
68858;SDS011;55864;49.238;8.092;2023-07-31T07:13:39;7.93;;;2.60;;
68858;SDS011;55864;49.238;8.092;2023-07-31T07:15:40;8.48;;;2.35;;
68858;SDS011;55864;49.238;8.092;2023-07-31T07:17:40;7.78;;;2.42;;
68858;SDS011;55864;49.238;8.092;2023-07-31T07:19:41;7.47;;;2.55;;
68858;SDS011;55864;49.238;8.092;2023-07-31T07:21:43;7.55;;;2.40;;
68858;SDS011;55864;49.238;8.092;2023-07-31T07:23:43;7.05;;;2.40;;
68858;SDS011;55864;49.238;8.092;2023-07-31T07:25:44;9.85;;;2.40;;
68858;SDS011;55864;49.238;8.092;2023-07-31T07:27:45;8.85;;;2.38;;
68858;SDS011;55864;49.238;8.092;2023-07-31T07:29:46;7.60;;;2.90;;
68858;SDS011;55864;49.238;8.092;2023-07-31T07:31:46;6.65;;;2.65;;
68858;SDS011;55864;49.238;8.092;2023-07-31T07:33:47;8.82;;;2.33;;
68858;SDS011;55864;49.238;8.092;2023-07-31T07:35:47;8.07;;;2.33;;
68858;SDS011;55864;49.238;8.092;2023-07-31T07:37:49;9.20;;;2.40;;
68858;SDS011;55864;49.238;8.092;2023-07-31T07:39:50;10.15;;;2.72;;
68858;SDS011;55864;49.238;8.092;2023-07-31T07:41:50;6.97;;;2.20;;
68858;SDS011;55864;49.238;8.092;2023-07-31T07:43:51;8.50;;;2.15;;
68858;SDS011;55864;49.238;8.092;2023-07-31T07:45:51;9.85;;;2.45;;
68858;SDS011;55864;49.238;8.092;2023-07-31T07:47:52;5.28;;;2.30;;
68858;SDS011;55864;49.238;8.092;2023-07-31T07:49:52;8.98;;;2.50;;
68858;SDS011;55864;49.238;8.092;2023-07-31T07:51:53;12.95;;;2.63;;
68858;SDS011;55864;49.238;8.092;2023-07-31T07:53:55;11.23;;;2.90;;
68858;SDS011;55864;49.238;8.092;2023-07-31T07:55:55;8.77;;;2.58;;
68858;SDS011;55864;49.238;8.092;2023-07-31T07:57:56;7.38;;;2.22;;
68858;SDS011;55864;49.238;8.092;2023-07-31T07:59:56;7.60;;;2.60;;
68858;SDS011;55864;49.238;8.092;2023-07-31T08:01:57;8.82;;;2.47;;
68858;SDS011;55864;49.238;8.092;2023-07-31T08:03:58;7.82;;;2.53;;
68858;SDS011;55864;49.238;8.092;2023-07-31T08:05:58;7.00;;;2.20;;
68858;SDS011;55864;49.238;8.092;2023-07-31T08:07:59;5.43;;;2.13;;
68858;SDS011;55864;49.238;8.092;2023-07-31T08:10:01;7.78;;;2.20;;
68858;SDS011;55864;49.238;8.092;2023-07-31T08:12:02;7.10;;;2.10;;
68858;SDS011;55864;49.238;8.092;2023-07-31T08:16:05;6.35;;;2.03;;
68858;SDS011;55864;49.238;8.092;2023-07-31T08:18:06;8.45;;;2.15;;
68858;SDS011;55864;49.238;8.092;2023-07-31T08:20:07;7.57;;;2.42;;
68858;SDS011;55864;49.238;8.092;2023-07-31T08:22:08;9.02;;;2.33;;
68858;SDS011;55864;49.238;8.092;2023-07-31T08:24:09;8.20;;;2.72;;
68858;SDS011;55864;49.238;8.092;2023-07-31T08:26:15;11.20;;;2.53;;
68858;SDS011;55864;49.238;8.092;2023-07-31T08:28:16;7.45;;;2.50;;
68858;SDS011;55864;49.238;8.092;2023-07-31T08:30:17;8.98;;;2.53;;
68858;SDS011;55864;49.238;8.092;2023-07-31T08:32:17;8.50;;;2.38;;
68858;SDS011;55864;49.238;8.092;2023-07-31T08:34:18;6.82;;;2.42;;
68858;SDS011;55864;49.238;8.092;2023-07-31T08:36:18;7.70;;;2.53;;
68858;SDS011;55864;49.238;8.092;2023-07-31T08:38:19;7.80;;;2.50;;
68858;SDS011;55864;49.238;8.092;2023-07-31T08:40:19;8.65;;;2.47;;
68858;SDS011;55864;49.238;8.092;2023-07-31T08:42:21;8.02;;;2.33;;
68858;SDS011;55864;49.238;8.092;2023-07-31T08:44:22;8.23;;;2.90;;
68858;SDS011;55864;49.238;8.092;2023-07-31T08:46:22;5.68;;;2.13;;
68858;SDS011;55864;49.238;8.092;2023-07-31T08:48:24;9.98;;;2.63;;
68858;SDS011;55864;49.238;8.092;2023-07-31T08:50:27;8.45;;;2.65;;
68858;SDS011;55864;49.238;8.092;2023-07-31T08:52:28;9.68;;;2.33;;
68858;SDS011;55864;49.238;8.092;2023-07-31T08:54:29;8.13;;;2.50;;
68858;SDS011;55864;49.238;8.092;2023-07-31T08:56:30;6.88;;;2.60;;
68858;SDS011;55864;49.238;8.092;2023-07-31T08:58:33;7.70;;;2.35;;
68858;SDS011;55864;49.238;8.092;2023-07-31T09:00:37;6.47;;;2.47;;
68858;SDS011;55864;49.238;8.092;2023-07-31T09:02:38;8.98;;;2.83;;
68858;SDS011;55864;49.238;8.092;2023-07-31T09:04:45;8.18;;;2.60;;
68858;SDS011;55864;49.238;8.092;2023-07-31T09:06:46;9.07;;;2.85;;
68858;SDS011;55864;49.238;8.092;2023-07-31T09:08:48;7.30;;;2.58;;
68858;SDS011;55864;49.238;8.092;2023-07-31T09:10:49;9.18;;;2.65;;
68858;SDS011;55864;49.238;8.092;2023-07-31T09:12:50;12.10;;;2.42;;
68858;SDS011;55864;49.238;8.092;2023-07-31T09:14:54;7.65;;;2.22;;
68858;SDS011;55864;49.238;8.092;2023-07-31T09:16:57;8.38;;;2.30;;
68858;SDS011;55864;49.238;8.092;2023-07-31T09:18:59;7.25;;;2.70;;
68858;SDS011;55864;49.238;8.092;2023-07-31T09:21:00;8.77;;;2.50;;
68858;SDS011;55864;49.238;8.092;2023-07-31T09:23:05;8.55;;;2.80;;
68858;SDS011;55864;49.238;8.092;2023-07-31T09:25:16;9.35;;;2.70;;
68858;SDS011;55864;49.238;8.092;2023-07-31T09:27:18;7.00;;;2.50;;
68858;SDS011;55864;49.238;8.092;2023-07-31T09:29:19;8.70;;;2.92;;
68858;SDS011;55864;49.238;8.092;2023-07-31T09:31:27;10.60;;;3.00;;
68858;SDS011;55864;49.238;8.092;2023-07-31T09:33:32;10.50;;;2.70;;
68858;SDS011;55864;49.238;8.092;2023-07-31T09:35:33;8.55;;;2.83;;
68858;SDS011;55864;49.238;8.092;2023-07-31T09:37:34;6.15;;;2.40;;
68858;SDS011;55864;49.238;8.092;2023-07-31T09:39:45;7.53;;;2.50;;
68858;SDS011;55864;49.238;8.092;2023-07-31T09:41:47;9.73;;;2.70;;
68858;SDS011;55864;49.238;8.092;2023-07-31T09:43:53;8.07;;;2.90;;
68858;SDS011;55864;49.238;8.092;2023-07-31T09:45:54;9.63;;;2.92;;
68858;SDS011;55864;49.238;8.092;2023-07-31T09:47:57;9.40;;;2.70;;
68858;SDS011;55864;49.238;8.092;2023-07-31T09:49:58;7.55;;;2.60;;
68858;SDS011;55864;49.238;8.092;2023-07-31T09:51:58;7.63;;;2.30;;
68858;SDS011;55864;49.238;8.092;2023-07-31T09:53:59;8.68;;;2.75;;
68858;SDS011;55864;49.238;8.092;2023-07-31T09:56:01;9.75;;;2.92;;
68858;SDS011;55864;49.238;8.092;2023-07-31T09:58:03;9.35;;;3.08;;
68858;SDS011;55864;49.238;8.092;2023-07-31T10:02:13;11.30;;;2.90;;
68858;SDS011;55864;49.238;8.092;2023-07-31T10:04:20;11.65;;;2.85;;
68858;SDS011;55864;49.238;8.092;2023-07-31T10:06:29;8.77;;;2.97;;
68858;SDS011;55864;49.238;8.092;2023-07-31T10:08:32;6.93;;;2.30;;
68858;SDS011;55864;49.238;8.092;2023-07-31T10:10:36;8.93;;;2.70;;
68858;SDS011;55864;49.238;8.092;2023-07-31T10:12:41;8.02;;;2.78;;
68858;SDS011;55864;49.238;8.092;2023-07-31T10:14:43;8.23;;;2.63;;
68858;SDS011;55864;49.238;8.092;2023-07-31T10:16:45;9.30;;;2.80;;
68858;SDS011;55864;49.238;8.092;2023-07-31T10:18:46;10.82;;;2.90;;
68858;SDS011;55864;49.238;8.092;2023-07-31T10:20:49;11.82;;;2.90;;
68858;SDS011;55864;49.238;8.092;2023-07-31T10:22:50;7.07;;;2.47;;
68858;SDS011;55864;49.238;8.092;2023-07-31T10:24:52;8.60;;;2.40;;
68858;SDS011;55864;49.238;8.092;2023-07-31T10:26:54;7.68;;;2.70;;
68858;SDS011;55864;49.238;8.092;2023-07-31T10:28:59;10.60;;;3.08;;
68858;SDS011;55864;49.238;8.092;2023-07-31T10:31:01;7.97;;;2.70;;
68858;SDS011;55864;49.238;8.092;2023-07-31T10:33:03;8.27;;;3.00;;
68858;SDS011;55864;49.238;8.092;2023-07-31T10:35:05;7.90;;;2.65;;
68858;SDS011;55864;49.238;8.092;2023-07-31T10:37:21;12.32;;;2.90;;
68858;SDS011;55864;49.238;8.092;2023-07-31T10:39:35;11.65;;;3.22;;
68858;SDS011;55864;49.238;8.092;2023-07-31T10:41:36;8.40;;;2.47;;
68858;SDS011;55864;49.238;8.092;2023-07-31T10:43:37;7.85;;;2.53;;
68858;SDS011;55864;49.238;8.092;2023-07-31T10:45:38;9.95;;;3.15;;
68858;SDS011;55864;49.238;8.092;2023-07-31T10:47:42;11.07;;;3.03;;
68858;SDS011;55864;49.238;8.092;2023-07-31T10:49:44;8.80;;;2.72;;
68858;SDS011;55864;49.238;8.092;2023-07-31T10:51:46;8.02;;;2.40;;
68858;SDS011;55864;49.238;8.092;2023-07-31T10:53:49;9.98;;;2.75;;
68858;SDS011;55864;49.238;8.092;2023-07-31T10:56:13;7.32;;;2.45;;
68858;SDS011;55864;49.238;8.092;2023-07-31T10:58:13;9.20;;;2.63;;
68858;SDS011;55864;49.238;8.092;2023-07-31T11:00:19;7.38;;;2.50;;
68858;SDS011;55864;49.238;8.092;2023-07-31T11:02:24;8.88;;;2.97;;
68858;SDS011;55864;49.238;8.092;2023-07-31T11:04:26;9.32;;;2.90;;
68858;SDS011;55864;49.238;8.092;2023-07-31T11:06:29;8.10;;;2.95;;
68858;SDS011;55864;49.238;8.092;2023-07-31T11:08:30;7.53;;;3.00;;
68858;SDS011;55864;49.238;8.092;2023-07-31T11:10:32;9.23;;;3.10;;
68858;SDS011;55864;49.238;8.092;2023-07-31T11:12:33;9.13;;;2.95;;
68858;SDS011;55864;49.238;8.092;2023-07-31T11:14:34;8.55;;;2.80;;
68858;SDS011;55864;49.238;8.092;2023-07-31T11:16:35;7.10;;;2.65;;
68858;SDS011;55864;49.238;8.092;2023-07-31T11:18:35;8.27;;;2.88;;
68858;SDS011;55864;49.238;8.092;2023-07-31T11:20:38;8.18;;;2.50;;
68858;SDS011;55864;49.238;8.092;2023-07-31T11:22:39;8.02;;;2.80;;
68858;SDS011;55864;49.238;8.092;2023-07-31T11:24:39;12.30;;;2.78;;
68858;SDS011;55864;49.238;8.092;2023-07-31T11:26:48;8.15;;;2.67;;
68858;SDS011;55864;49.238;8.092;2023-07-31T11:28:50;8.77;;;2.92;;
68858;SDS011;55864;49.238;8.092;2023-07-31T11:30:51;7.78;;;2.80;;
68858;SDS011;55864;49.238;8.092;2023-07-31T11:32:51;9.70;;;3.03;;
68858;SDS011;55864;49.238;8.092;2023-07-31T11:34:52;7.82;;;2.80;;
68858;SDS011;55864;49.238;8.092;2023-07-31T11:36:53;11.20;;;2.90;;
68858;SDS011;55864;49.238;8.092;2023-07-31T11:38:55;8.05;;;2.75;;
68858;SDS011;55864;49.238;8.092;2023-07-31T11:41:06;7.60;;;3.00;;
68858;SDS011;55864;49.238;8.092;2023-07-31T11:43:13;9.63;;;2.90;;
68858;SDS011;55864;49.238;8.092;2023-07-31T11:45:18;8.57;;;3.05;;
68858;SDS011;55864;49.238;8.092;2023-07-31T11:47:22;8.95;;;3.17;;
68858;SDS011;55864;49.238;8.092;2023-07-31T11:49:22;8.68;;;2.38;;
68858;SDS011;55864;49.238;8.092;2023-07-31T11:51:23;7.43;;;2.40;;
68858;SDS011;55864;49.238;8.092;2023-07-31T11:53:25;7.22;;;2.47;;
68858;SDS011;55864;49.238;8.092;2023-07-31T11:55:29;7.05;;;2.50;;
68858;SDS011;55864;49.238;8.092;2023-07-31T11:57:30;6.03;;;2.53;;
68858;SDS011;55864;49.238;8.092;2023-07-31T11:59:32;10.68;;;2.70;;
68858;SDS011;55864;49.238;8.092;2023-07-31T12:01:34;8.57;;;2.58;;
68858;SDS011;55864;49.238;8.092;2023-07-31T12:03:35;10.02;;;3.13;;
68858;SDS011;55864;49.238;8.092;2023-07-31T12:05:36;7.97;;;2.70;;
68858;SDS011;55864;49.238;8.092;2023-07-31T12:07:44;9.15;;;2.50;;
68858;SDS011;55864;49.238;8.092;2023-07-31T12:09:52;6.40;;;2.58;;
68858;SDS011;55864;49.238;8.092;2023-07-31T12:11:53;11.07;;;2.50;;
68858;SDS011;55864;49.238;8.092;2023-07-31T12:13:54;7.32;;;2.45;;
68858;SDS011;55864;49.238;8.092;2023-07-31T12:15:56;7.68;;;2.60;;